sensor_id;sensor_type;location;lat;lon;timestamp;P1;durP1;ratioP1;P2;durP2;ratioP2
45039;SDS011;30778;53.574;7.770;2022-11-13T00:00:55;18.02;;;10.77;;
45039;SDS011;30778;53.574;7.770;2022-11-13T00:03:39;15.60;;;10.90;;
45039;SDS011;30778;53.574;7.770;2022-11-13T00:06:23;18.58;;;10.50;;
45039;SDS011;30778;53.574;7.770;2022-11-13T00:09:11;15.48;;;9.90;;
45039;SDS011;30778;53.574;7.770;2022-11-13T00:11:55;17.90;;;10.48;;
45039;SDS011;30778;53.574;7.770;2022-11-13T00:14:39;15.38;;;8.85;;
45039;SDS011;30778;53.574;7.770;2022-11-13T00:17:23;14.85;;;9.02;;
45039;SDS011;30778;53.574;7.770;2022-11-13T00:20:07;13.43;;;9.18;;
45039;SDS011;30778;53.574;7.770;2022-11-13T00:22:52;18.60;;;9.88;;
45039;SDS011;30778;53.574;7.770;2022-11-13T00:25:36;16.27;;;9.07;;
45039;SDS011;30778;53.574;7.770;2022-11-13T00:28:20;14.35;;;9.20;;
45039;SDS011;30778;53.574;7.770;2022-11-13T00:31:04;14.18;;;8.82;;
45039;SDS011;30778;53.574;7.770;2022-11-13T00:33:49;18.15;;;8.75;;
45039;SDS011;30778;53.574;7.770;2022-11-13T00:36:34;13.95;;;9.25;;
45039;SDS011;30778;53.574;7.770;2022-11-13T00:39:18;16.25;;;8.90;;
45039;SDS011;30778;53.574;7.770;2022-11-13T00:42:02;20.15;;;9.23;;
45039;SDS011;30778;53.574;7.770;2022-11-13T00:44:46;13.05;;;7.82;;
45039;SDS011;30778;53.574;7.770;2022-11-13T00:47:30;15.23;;;9.20;;
45039;SDS011;30778;53.574;7.770;2022-11-13T00:50:14;13.48;;;8.65;;
45039;SDS011;30778;53.574;7.770;2022-11-13T00:52:58;14.73;;;9.13;;
45039;SDS011;30778;53.574;7.770;2022-11-13T00:55:42;16.05;;;8.05;;
45039;SDS011;30778;53.574;7.770;2022-11-13T00:58:27;15.60;;;8.40;;
45039;SDS011;30778;53.574;7.770;2022-11-13T01:01:12;18.55;;;10.02;;
45039;SDS011;30778;53.574;7.770;2022-11-13T01:03:59;11.57;;;8.05;;
45039;SDS011;30778;53.574;7.770;2022-11-13T01:06:43;19.35;;;9.82;;
45039;SDS011;30778;53.574;7.770;2022-11-13T01:09:28;15.60;;;8.32;;
45039;SDS011;30778;53.574;7.770;2022-11-13T01:12:12;14.82;;;8.70;;
45039;SDS011;30778;53.574;7.770;2022-11-13T01:14:56;12.52;;;8.02;;
45039;SDS011;30778;53.574;7.770;2022-11-13T01:17:40;13.48;;;9.35;;
45039;SDS011;30778;53.574;7.770;2022-11-13T01:20:24;15.02;;;8.23;;
45039;SDS011;30778;53.574;7.770;2022-11-13T01:23:10;16.60;;;8.57;;
45039;SDS011;30778;53.574;7.770;2022-11-13T01:25:54;13.80;;;8.75;;
45039;SDS011;30778;53.574;7.770;2022-11-13T01:28:46;15.43;;;8.65;;
45039;SDS011;30778;53.574;7.770;2022-11-13T01:31:30;16.52;;;8.48;;
45039;SDS011;30778;53.574;7.770;2022-11-13T01:34:15;15.50;;;8.55;;
45039;SDS011;30778;53.574;7.770;2022-11-13T01:36:59;17.75;;;9.57;;
45039;SDS011;30778;53.574;7.770;2022-11-13T01:39:43;13.93;;;9.15;;
45039;SDS011;30778;53.574;7.770;2022-11-13T01:42:27;15.05;;;9.80;;
45039;SDS011;30778;53.574;7.770;2022-11-13T01:48:43;14.15;;;9.05;;
45039;SDS011;30778;53.574;7.770;2022-11-13T01:51:33;15.95;;;9.23;;
45039;SDS011;30778;53.574;7.770;2022-11-13T01:54:21;17.30;;;10.32;;
45039;SDS011;30778;53.574;7.770;2022-11-13T01:57:08;15.20;;;9.20;;
45039;SDS011;30778;53.574;7.770;2022-11-13T01:59:54;20.48;;;10.38;;
45039;SDS011;30778;53.574;7.770;2022-11-13T02:02:41;15.95;;;8.90;;
45039;SDS011;30778;53.574;7.770;2022-11-13T02:05:26;16.30;;;8.65;;
45039;SDS011;30778;53.574;7.770;2022-11-13T02:08:10;16.85;;;8.80;;
45039;SDS011;30778;53.574;7.770;2022-11-13T02:10:58;12.55;;;9.40;;
45039;SDS011;30778;53.574;7.770;2022-11-13T02:13:42;13.90;;;8.90;;
45039;SDS011;30778;53.574;7.770;2022-11-13T02:16:29;19.20;;;9.57;;
45039;SDS011;30778;53.574;7.770;2022-11-13T02:22:37;14.18;;;9.50;;
45039;SDS011;30778;53.574;7.770;2022-11-13T02:25:30;16.92;;;9.75;;
45039;SDS011;30778;53.574;7.770;2022-11-13T02:28:15;13.82;;;9.30;;
45039;SDS011;30778;53.574;7.770;2022-11-13T02:31:09;16.35;;;8.80;;
45039;SDS011;30778;53.574;7.770;2022-11-13T02:33:55;15.57;;;9.55;;
45039;SDS011;30778;53.574;7.770;2022-11-13T02:36:39;14.35;;;8.88;;
45039;SDS011;30778;53.574;7.770;2022-11-13T02:39:23;18.63;;;9.00;;
45039;SDS011;30778;53.574;7.770;2022-11-13T02:42:07;17.70;;;9.43;;
45039;SDS011;30778;53.574;7.770;2022-11-13T02:44:54;13.05;;;9.40;;
45039;SDS011;30778;53.574;7.770;2022-11-13T02:47:39;18.17;;;9.52;;
45039;SDS011;30778;53.574;7.770;2022-11-13T02:50:24;17.98;;;9.07;;
45039;SDS011;30778;53.574;7.770;2022-11-13T02:53:08;14.43;;;8.40;;
45039;SDS011;30778;53.574;7.770;2022-11-13T02:55:52;14.73;;;8.25;;
45039;SDS011;30778;53.574;7.770;2022-11-13T02:58:36;15.77;;;8.77;;
45039;SDS011;30778;53.574;7.770;2022-11-13T03:01:20;15.35;;;8.75;;
45039;SDS011;30778;53.574;7.770;2022-11-13T03:04:04;17.67;;;9.27;;
45039;SDS011;30778;53.574;7.770;2022-11-13T03:06:48;14.07;;;8.65;;
45039;SDS011;30778;53.574;7.770;2022-11-13T03:09:32;16.00;;;8.70;;
45039;SDS011;30778;53.574;7.770;2022-11-13T03:12:16;15.23;;;8.43;;
45039;SDS011;30778;53.574;7.770;2022-11-13T03:15:00;12.00;;;8.10;;
45039;SDS011;30778;53.574;7.770;2022-11-13T03:17:44;15.32;;;8.65;;
45039;SDS011;30778;53.574;7.770;2022-11-13T03:20:29;16.85;;;8.77;;
45039;SDS011;30778;53.574;7.770;2022-11-13T03:23:13;17.77;;;8.60;;
45039;SDS011;30778;53.574;7.770;2022-11-13T03:26:01;11.93;;;8.15;;
45039;SDS011;30778;53.574;7.770;2022-11-13T03:28:46;19.88;;;9.10;;
45039;SDS011;30778;53.574;7.770;2022-11-13T03:31:30;12.30;;;8.23;;
45039;SDS011;30778;53.574;7.770;2022-11-13T03:34:15;13.18;;;8.85;;
45039;SDS011;30778;53.574;7.770;2022-11-13T03:37:00;13.85;;;8.77;;
45039;SDS011;30778;53.574;7.770;2022-11-13T03:39:44;11.75;;;7.82;;
45039;SDS011;30778;53.574;7.770;2022-11-13T03:42:28;12.65;;;8.80;;
45039;SDS011;30778;53.574;7.770;2022-11-13T03:45:13;14.13;;;8.77;;
45039;SDS011;30778;53.574;7.770;2022-11-13T03:47:57;15.05;;;8.15;;
45039;SDS011;30778;53.574;7.770;2022-11-13T03:50:41;9.80;;;7.20;;
45039;SDS011;30778;53.574;7.770;2022-11-13T03:53:27;13.18;;;7.82;;
45039;SDS011;30778;53.574;7.770;2022-11-13T03:56:11;13.30;;;8.07;;
45039;SDS011;30778;53.574;7.770;2022-11-13T03:58:55;16.13;;;9.02;;
45039;SDS011;30778;53.574;7.770;2022-11-13T04:01:39;10.98;;;8.10;;
45039;SDS011;30778;53.574;7.770;2022-11-13T04:04:23;17.85;;;8.02;;
45039;SDS011;30778;53.574;7.770;2022-11-13T04:07:07;16.33;;;8.82;;
45039;SDS011;30778;53.574;7.770;2022-11-13T04:09:51;14.40;;;8.60;;
45039;SDS011;30778;53.574;7.770;2022-11-13T04:12:35;14.98;;;8.50;;
45039;SDS011;30778;53.574;7.770;2022-11-13T04:15:19;13.98;;;8.25;;
45039;SDS011;30778;53.574;7.770;2022-11-13T04:18:03;11.02;;;7.32;;
45039;SDS011;30778;53.574;7.770;2022-11-13T04:20:47;13.88;;;8.13;;
45039;SDS011;30778;53.574;7.770;2022-11-13T04:23:32;12.13;;;7.65;;
45039;SDS011;30778;53.574;7.770;2022-11-13T04:26:16;15.35;;;7.93;;
45039;SDS011;30778;53.574;7.770;2022-11-13T04:29:00;12.63;;;6.88;;
45039;SDS011;30778;53.574;7.770;2022-11-13T04:31:44;15.20;;;8.02;;
45039;SDS011;30778;53.574;7.770;2022-11-13T04:34:28;12.10;;;7.00;;
45039;SDS011;30778;53.574;7.770;2022-11-13T04:37:12;17.42;;;7.38;;
45039;SDS011;30778;53.574;7.770;2022-11-13T04:39:57;12.00;;;6.22;;
45039;SDS011;30778;53.574;7.770;2022-11-13T04:42:41;8.63;;;6.20;;
45039;SDS011;30778;53.574;7.770;2022-11-13T04:45:34;9.70;;;6.18;;
45039;SDS011;30778;53.574;7.770;2022-11-13T04:48:19;14.88;;;7.25;;
45039;SDS011;30778;53.574;7.770;2022-11-13T04:51:03;10.77;;;6.90;;
45039;SDS011;30778;53.574;7.770;2022-11-13T04:53:47;13.63;;;7.18;;
45039;SDS011;30778;53.574;7.770;2022-11-13T04:56:31;11.32;;;7.68;;
45039;SDS011;30778;53.574;7.770;2022-11-13T04:59:15;15.25;;;7.75;;
45039;SDS011;30778;53.574;7.770;2022-11-13T05:01:59;14.95;;;7.50;;
45039;SDS011;30778;53.574;7.770;2022-11-13T05:04:44;12.38;;;6.70;;
45039;SDS011;30778;53.574;7.770;2022-11-13T05:07:28;11.77;;;6.18;;
45039;SDS011;30778;53.574;7.770;2022-11-13T05:10:12;13.38;;;6.85;;
45039;SDS011;30778;53.574;7.770;2022-11-13T05:12:56;10.20;;;6.68;;
45039;SDS011;30778;53.574;7.770;2022-11-13T05:15:40;13.02;;;7.13;;
45039;SDS011;30778;53.574;7.770;2022-11-13T05:18:24;8.68;;;6.05;;
45039;SDS011;30778;53.574;7.770;2022-11-13T05:21:09;14.13;;;7.05;;
45039;SDS011;30778;53.574;7.770;2022-11-13T05:23:53;9.93;;;6.90;;
45039;SDS011;30778;53.574;7.770;2022-11-13T05:26:37;12.95;;;7.47;;
45039;SDS011;30778;53.574;7.770;2022-11-13T05:29:22;11.05;;;6.63;;
45039;SDS011;30778;53.574;7.770;2022-11-13T05:32:06;8.88;;;6.07;;
45039;SDS011;30778;53.574;7.770;2022-11-13T05:34:50;8.65;;;5.90;;
45039;SDS011;30778;53.574;7.770;2022-11-13T05:37:34;9.93;;;5.90;;
45039;SDS011;30778;53.574;7.770;2022-11-13T05:40:19;15.90;;;7.22;;
45039;SDS011;30778;53.574;7.770;2022-11-13T05:43:03;13.50;;;6.47;;
45039;SDS011;30778;53.574;7.770;2022-11-13T05:45:47;8.90;;;5.68;;
45039;SDS011;30778;53.574;7.770;2022-11-13T05:48:31;12.55;;;7.25;;
45039;SDS011;30778;53.574;7.770;2022-11-13T05:51:17;7.22;;;5.07;;
45039;SDS011;30778;53.574;7.770;2022-11-13T05:54:06;7.05;;;5.43;;
45039;SDS011;30778;53.574;7.770;2022-11-13T05:56:50;9.00;;;5.70;;
45039;SDS011;30778;53.574;7.770;2022-11-13T05:59:34;7.05;;;5.00;;
45039;SDS011;30778;53.574;7.770;2022-11-13T06:02:18;9.20;;;6.18;;
45039;SDS011;30778;53.574;7.770;2022-11-13T06:05:02;7.18;;;4.70;;
45039;SDS011;30778;53.574;7.770;2022-11-13T06:07:47;8.77;;;5.22;;
45039;SDS011;30778;53.574;7.770;2022-11-13T06:10:32;12.32;;;6.68;;
45039;SDS011;30778;53.574;7.770;2022-11-13T06:13:16;11.68;;;6.07;;
45039;SDS011;30778;53.574;7.770;2022-11-13T06:16:01;8.50;;;5.75;;
45039;SDS011;30778;53.574;7.770;2022-11-13T06:18:47;12.07;;;6.07;;
45039;SDS011;30778;53.574;7.770;2022-11-13T06:21:33;8.65;;;5.78;;
45039;SDS011;30778;53.574;7.770;2022-11-13T06:24:19;10.63;;;5.72;;
45039;SDS011;30778;53.574;7.770;2022-11-13T06:27:03;9.45;;;5.50;;
45039;SDS011;30778;53.574;7.770;2022-11-13T06:29:47;9.23;;;5.97;;
45039;SDS011;30778;53.574;7.770;2022-11-13T06:32:31;8.48;;;6.00;;
45039;SDS011;30778;53.574;7.770;2022-11-13T06:35:15;10.32;;;6.65;;
45039;SDS011;30778;53.574;7.770;2022-11-13T06:37:59;7.63;;;5.78;;
45039;SDS011;30778;53.574;7.770;2022-11-13T06:40:43;11.27;;;6.43;;
45039;SDS011;30778;53.574;7.770;2022-11-13T06:43:27;8.57;;;5.15;;
45039;SDS011;30778;53.574;7.770;2022-11-13T06:46:13;11.32;;;6.38;;
45039;SDS011;30778;53.574;7.770;2022-11-13T06:48:59;10.65;;;5.60;;
45039;SDS011;30778;53.574;7.770;2022-11-13T06:51:43;9.35;;;5.97;;
45039;SDS011;30778;53.574;7.770;2022-11-13T06:54:27;8.98;;;5.95;;
45039;SDS011;30778;53.574;7.770;2022-11-13T06:57:11;11.93;;;6.25;;
45039;SDS011;30778;53.574;7.770;2022-11-13T06:59:55;12.88;;;6.70;;
45039;SDS011;30778;53.574;7.770;2022-11-13T07:02:39;11.15;;;6.07;;
45039;SDS011;30778;53.574;7.770;2022-11-13T07:05:23;9.20;;;5.70;;
45039;SDS011;30778;53.574;7.770;2022-11-13T07:08:07;10.35;;;5.65;;
45039;SDS011;30778;53.574;7.770;2022-11-13T07:10:51;10.85;;;6.70;;
45039;SDS011;30778;53.574;7.770;2022-11-13T07:13:39;11.23;;;7.63;;
45039;SDS011;30778;53.574;7.770;2022-11-13T07:16:24;11.90;;;7.20;;
45039;SDS011;30778;53.574;7.770;2022-11-13T07:19:08;9.50;;;6.70;;
45039;SDS011;30778;53.574;7.770;2022-11-13T07:21:52;8.82;;;6.72;;
45039;SDS011;30778;53.574;7.770;2022-11-13T07:24:36;10.27;;;6.38;;
45039;SDS011;30778;53.574;7.770;2022-11-13T07:27:20;17.65;;;8.43;;
45039;SDS011;30778;53.574;7.770;2022-11-13T07:30:05;19.33;;;9.70;;
45039;SDS011;30778;53.574;7.770;2022-11-13T07:32:49;19.55;;;10.55;;
45039;SDS011;30778;53.574;7.770;2022-11-13T07:35:34;22.25;;;10.70;;
45039;SDS011;30778;53.574;7.770;2022-11-13T07:38:18;18.73;;;11.70;;
45039;SDS011;30778;53.574;7.770;2022-11-13T07:41:02;17.40;;;9.88;;
45039;SDS011;30778;53.574;7.770;2022-11-13T07:43:46;16.55;;;9.13;;
45039;SDS011;30778;53.574;7.770;2022-11-13T07:46:30;13.88;;;8.77;;
45039;SDS011;30778;53.574;7.770;2022-11-13T07:49:14;15.43;;;8.95;;
45039;SDS011;30778;53.574;7.770;2022-11-13T07:51:58;17.15;;;10.43;;
45039;SDS011;30778;53.574;7.770;2022-11-13T07:54:42;15.35;;;10.65;;
45039;SDS011;30778;53.574;7.770;2022-11-13T07:57:27;14.77;;;9.57;;
45039;SDS011;30778;53.574;7.770;2022-11-13T08:00:11;16.55;;;9.75;;
45039;SDS011;30778;53.574;7.770;2022-11-13T08:02:55;13.80;;;8.45;;
45039;SDS011;30778;53.574;7.770;2022-11-13T08:05:39;18.60;;;10.38;;
45039;SDS011;30778;53.574;7.770;2022-11-13T08:08:24;17.20;;;8.52;;
45039;SDS011;30778;53.574;7.770;2022-11-13T08:11:08;18.27;;;7.25;;
45039;SDS011;30778;53.574;7.770;2022-11-13T08:13:53;12.43;;;7.95;;
45039;SDS011;30778;53.574;7.770;2022-11-13T08:16:36;9.05;;;6.32;;
45039;SDS011;30778;53.574;7.770;2022-11-13T08:19:20;7.85;;;5.07;;
45039;SDS011;30778;53.574;7.770;2022-11-13T08:22:05;10.15;;;6.22;;
45039;SDS011;30778;53.574;7.770;2022-11-13T08:24:48;11.98;;;6.57;;
45039;SDS011;30778;53.574;7.770;2022-11-13T08:27:36;13.40;;;6.82;;
45039;SDS011;30778;53.574;7.770;2022-11-13T08:30:21;10.30;;;6.70;;
45039;SDS011;30778;53.574;7.770;2022-11-13T08:33:06;10.52;;;6.18;;
45039;SDS011;30778;53.574;7.770;2022-11-13T08:35:51;9.88;;;6.15;;
45039;SDS011;30778;53.574;7.770;2022-11-13T08:38:36;10.07;;;5.97;;
45039;SDS011;30778;53.574;7.770;2022-11-13T08:41:20;9.13;;;5.85;;
45039;SDS011;30778;53.574;7.770;2022-11-13T08:44:04;7.20;;;5.90;;
45039;SDS011;30778;53.574;7.770;2022-11-13T08:46:48;11.00;;;6.85;;
45039;SDS011;30778;53.574;7.770;2022-11-13T08:49:32;11.05;;;6.90;;
45039;SDS011;30778;53.574;7.770;2022-11-13T08:52:16;11.55;;;6.97;;
45039;SDS011;30778;53.574;7.770;2022-11-13T08:55:00;8.85;;;5.97;;
45039;SDS011;30778;53.574;7.770;2022-11-13T08:57:44;9.65;;;7.35;;
45039;SDS011;30778;53.574;7.770;2022-11-13T09:00:29;7.28;;;5.72;;
45039;SDS011;30778;53.574;7.770;2022-11-13T09:03:15;11.10;;;7.38;;
45039;SDS011;30778;53.574;7.770;2022-11-13T09:05:59;12.20;;;7.53;;
45039;SDS011;30778;53.574;7.770;2022-11-13T09:08:43;14.63;;;6.75;;
45039;SDS011;30778;53.574;7.770;2022-11-13T09:11:27;9.90;;;6.90;;
45039;SDS011;30778;53.574;7.770;2022-11-13T09:14:11;11.00;;;7.47;;
45039;SDS011;30778;53.574;7.770;2022-11-13T09:16:55;7.93;;;6.57;;
45039;SDS011;30778;53.574;7.770;2022-11-13T09:19:40;9.55;;;6.18;;
45039;SDS011;30778;53.574;7.770;2022-11-13T09:22:24;11.60;;;6.40;;
45039;SDS011;30778;53.574;7.770;2022-11-13T09:25:08;9.52;;;6.05;;
45039;SDS011;30778;53.574;7.770;2022-11-13T09:27:53;10.43;;;6.05;;
45039;SDS011;30778;53.574;7.770;2022-11-13T09:30:38;11.45;;;7.18;;
45039;SDS011;30778;53.574;7.770;2022-11-13T09:33:23;11.10;;;7.35;;
45039;SDS011;30778;53.574;7.770;2022-11-13T09:36:11;13.68;;;7.03;;
45039;SDS011;30778;53.574;7.770;2022-11-13T09:38:57;13.55;;;7.40;;
45039;SDS011;30778;53.574;7.770;2022-11-13T09:41:45;10.20;;;7.15;;
45039;SDS011;30778;53.574;7.770;2022-11-13T09:44:37;12.70;;;7.82;;
45039;SDS011;30778;53.574;7.770;2022-11-13T09:47:38;12.88;;;7.30;;
45039;SDS011;30778;53.574;7.770;2022-11-13T09:50:26;16.13;;;8.65;;
45039;SDS011;30778;53.574;7.770;2022-11-13T09:53:12;13.07;;;8.15;;
45039;SDS011;30778;53.574;7.770;2022-11-13T09:59:28;11.48;;;7.60;;
45039;SDS011;30778;53.574;7.770;2022-11-13T10:02:21;11.95;;;7.13;;
45039;SDS011;30778;53.574;7.770;2022-11-13T10:08:13;12.07;;;7.50;;
45039;SDS011;30778;53.574;7.770;2022-11-13T10:11:05;11.18;;;7.20;;
45039;SDS011;30778;53.574;7.770;2022-11-13T10:13:58;13.57;;;7.13;;
45039;SDS011;30778;53.574;7.770;2022-11-13T10:20:23;9.57;;;7.00;;
45039;SDS011;30778;53.574;7.770;2022-11-13T10:23:17;12.45;;;7.93;;
45039;SDS011;30778;53.574;7.770;2022-11-13T10:26:12;11.48;;;7.45;;
45039;SDS011;30778;53.574;7.770;2022-11-13T10:29:00;15.95;;;8.25;;
45039;SDS011;30778;53.574;7.770;2022-11-13T10:31:50;18.13;;;8.40;;
45039;SDS011;30778;53.574;7.770;2022-11-13T10:34:35;8.75;;;5.93;;
45039;SDS011;30778;53.574;7.770;2022-11-13T10:40:25;11.52;;;8.10;;
45039;SDS011;30778;53.574;7.770;2022-11-13T10:43:17;11.43;;;7.38;;
45039;SDS011;30778;53.574;7.770;2022-11-13T10:46:03;9.27;;;7.55;;
45039;SDS011;30778;53.574;7.770;2022-11-13T10:48:48;10.07;;;7.80;;
45039;SDS011;30778;53.574;7.770;2022-11-13T10:51:32;9.77;;;7.43;;
45039;SDS011;30778;53.574;7.770;2022-11-13T10:54:27;11.75;;;6.93;;
45039;SDS011;30778;53.574;7.770;2022-11-13T10:57:27;26.95;;;12.30;;
45039;SDS011;30778;53.574;7.770;2022-11-13T11:00:23;15.13;;;8.07;;
45039;SDS011;30778;53.574;7.770;2022-11-13T11:03:17;12.15;;;7.43;;
45039;SDS011;30778;53.574;7.770;2022-11-13T11:06:03;12.25;;;7.95;;
45039;SDS011;30778;53.574;7.770;2022-11-13T11:08:48;9.95;;;7.53;;
45039;SDS011;30778;53.574;7.770;2022-11-13T11:11:32;9.85;;;6.03;;
45039;SDS011;30778;53.574;7.770;2022-11-13T11:17:42;9.90;;;6.65;;
45039;SDS011;30778;53.574;7.770;2022-11-13T11:26:43;11.38;;;7.38;;
45039;SDS011;30778;53.574;7.770;2022-11-13T11:29:41;12.52;;;8.00;;
45039;SDS011;30778;53.574;7.770;2022-11-13T11:32:41;12.27;;;7.97;;
45039;SDS011;30778;53.574;7.770;2022-11-13T11:47:47;10.85;;;7.15;;
45039;SDS011;30778;53.574;7.770;2022-11-13T11:56:54;11.82;;;6.63;;
45039;SDS011;30778;53.574;7.770;2022-11-13T11:59:53;9.95;;;6.35;;
45039;SDS011;30778;53.574;7.770;2022-11-13T12:11:54;10.73;;;6.20;;
45039;SDS011;30778;53.574;7.770;2022-11-13T12:23:51;10.77;;;7.30;;
45039;SDS011;30778;53.574;7.770;2022-11-13T12:26:49;10.30;;;6.95;;
45039;SDS011;30778;53.574;7.770;2022-11-13T12:35:45;10.43;;;6.65;;
45039;SDS011;30778;53.574;7.770;2022-11-13T12:38:35;14.98;;;6.90;;
45039;SDS011;30778;53.574;7.770;2022-11-13T12:44:25;11.70;;;6.55;;
45039;SDS011;30778;53.574;7.770;2022-11-13T12:47:11;12.10;;;7.22;;
45039;SDS011;30778;53.574;7.770;2022-11-13T12:50:00;7.78;;;6.32;;
45039;SDS011;30778;53.574;7.770;2022-11-13T12:56:07;9.88;;;6.03;;
45039;SDS011;30778;53.574;7.770;2022-11-13T13:05:17;8.25;;;6.25;;
45039;SDS011;30778;53.574;7.770;2022-11-13T13:11:18;13.25;;;6.65;;
45039;SDS011;30778;53.574;7.770;2022-11-13T13:14:24;11.65;;;6.78;;
45039;SDS011;30778;53.574;7.770;2022-11-13T13:17:20;11.40;;;6.80;;
45039;SDS011;30778;53.574;7.770;2022-11-13T13:23:11;11.48;;;7.65;;
45039;SDS011;30778;53.574;7.770;2022-11-13T13:26:12;10.95;;;7.25;;
45039;SDS011;30778;53.574;7.770;2022-11-13T13:29:10;10.05;;;6.95;;
45039;SDS011;30778;53.574;7.770;2022-11-13T13:35:16;15.70;;;7.05;;
45039;SDS011;30778;53.574;7.770;2022-11-13T13:47:13;10.40;;;6.53;;
45039;SDS011;30778;53.574;7.770;2022-11-13T13:50:06;10.02;;;6.50;;
45039;SDS011;30778;53.574;7.770;2022-11-13T13:52:55;8.43;;;6.47;;
45039;SDS011;30778;53.574;7.770;2022-11-13T13:55:48;7.75;;;5.78;;
45039;SDS011;30778;53.574;7.770;2022-11-13T13:58:40;8.10;;;6.72;;
45039;SDS011;30778;53.574;7.770;2022-11-13T14:01:29;10.68;;;7.50;;
45039;SDS011;30778;53.574;7.770;2022-11-13T14:04:19;9.57;;;6.75;;
45039;SDS011;30778;53.574;7.770;2022-11-13T14:07:16;11.68;;;6.90;;
45039;SDS011;30778;53.574;7.770;2022-11-13T14:10:06;10.05;;;7.00;;
45039;SDS011;30778;53.574;7.770;2022-11-13T14:13:01;12.07;;;7.65;;
45039;SDS011;30778;53.574;7.770;2022-11-13T14:15:46;9.52;;;6.90;;
45039;SDS011;30778;53.574;7.770;2022-11-13T14:18:30;10.30;;;6.93;;
45039;SDS011;30778;53.574;7.770;2022-11-13T14:21:19;10.55;;;7.30;;
45039;SDS011;30778;53.574;7.770;2022-11-13T14:24:07;14.00;;;7.00;;
45039;SDS011;30778;53.574;7.770;2022-11-13T14:26:57;10.82;;;6.90;;
45039;SDS011;30778;53.574;7.770;2022-11-13T14:29:45;11.00;;;6.95;;
45039;SDS011;30778;53.574;7.770;2022-11-13T14:32:32;10.85;;;6.90;;
45039;SDS011;30778;53.574;7.770;2022-11-13T14:35:23;10.57;;;6.78;;
45039;SDS011;30778;53.574;7.770;2022-11-13T14:38:20;9.00;;;7.20;;
45039;SDS011;30778;53.574;7.770;2022-11-13T14:44:03;10.13;;;7.10;;
45039;SDS011;30778;53.574;7.770;2022-11-13T14:46:56;11.40;;;7.30;;
45039;SDS011;30778;53.574;7.770;2022-11-13T14:49:45;12.55;;;7.25;;
45039;SDS011;30778;53.574;7.770;2022-11-13T14:52:29;12.07;;;7.40;;
45039;SDS011;30778;53.574;7.770;2022-11-13T14:55:20;10.45;;;7.15;;
45039;SDS011;30778;53.574;7.770;2022-11-13T14:58:10;11.48;;;7.82;;
45039;SDS011;30778;53.574;7.770;2022-11-13T15:00:57;10.18;;;6.75;;
45039;SDS011;30778;53.574;7.770;2022-11-13T15:03:57;11.73;;;7.07;;
45039;SDS011;30778;53.574;7.770;2022-11-13T15:06:41;9.32;;;6.75;;
45039;SDS011;30778;53.574;7.770;2022-11-13T15:09:25;11.57;;;7.47;;
45039;SDS011;30778;53.574;7.770;2022-11-13T15:12:12;11.98;;;6.82;;
45039;SDS011;30778;53.574;7.770;2022-11-13T15:14:56;10.43;;;7.20;;
45039;SDS011;30778;53.574;7.770;2022-11-13T15:17:40;9.82;;;6.60;;
45039;SDS011;30778;53.574;7.770;2022-11-13T15:20:27;12.07;;;7.55;;
45039;SDS011;30778;53.574;7.770;2022-11-13T15:23:14;12.13;;;7.90;;
45039;SDS011;30778;53.574;7.770;2022-11-13T15:25:59;15.13;;;7.63;;
45039;SDS011;30778;53.574;7.770;2022-11-13T15:28:43;12.10;;;6.95;;
45039;SDS011;30778;53.574;7.770;2022-11-13T15:31:39;9.73;;;6.82;;
45039;SDS011;30778;53.574;7.770;2022-11-13T15:34:24;8.85;;;6.43;;
45039;SDS011;30778;53.574;7.770;2022-11-13T15:37:10;12.45;;;7.18;;
45039;SDS011;30778;53.574;7.770;2022-11-13T15:39:58;10.13;;;6.35;;
45039;SDS011;30778;53.574;7.770;2022-11-13T15:42:42;11.20;;;7.03;;
45039;SDS011;30778;53.574;7.770;2022-11-13T15:45:27;9.07;;;6.78;;
45039;SDS011;30778;53.574;7.770;2022-11-13T15:48:11;9.43;;;6.13;;
45039;SDS011;30778;53.574;7.770;2022-11-13T15:50:57;10.38;;;7.20;;
45039;SDS011;30778;53.574;7.770;2022-11-13T15:53:42;8.38;;;6.18;;
45039;SDS011;30778;53.574;7.770;2022-11-13T15:56:27;9.45;;;6.13;;
45039;SDS011;30778;53.574;7.770;2022-11-13T15:59:13;11.32;;;6.70;;
45039;SDS011;30778;53.574;7.770;2022-11-13T16:01:57;12.50;;;7.43;;
45039;SDS011;30778;53.574;7.770;2022-11-13T16:04:41;11.00;;;7.47;;
45039;SDS011;30778;53.574;7.770;2022-11-13T16:07:26;13.18;;;7.38;;
45039;SDS011;30778;53.574;7.770;2022-11-13T16:10:12;13.43;;;6.20;;
45039;SDS011;30778;53.574;7.770;2022-11-13T16:12:57;10.65;;;5.85;;
45039;SDS011;30778;53.574;7.770;2022-11-13T16:15:41;13.48;;;6.95;;
45039;SDS011;30778;53.574;7.770;2022-11-13T16:18:26;12.13;;;7.07;;
45039;SDS011;30778;53.574;7.770;2022-11-13T16:21:12;13.75;;;7.47;;
45039;SDS011;30778;53.574;7.770;2022-11-13T16:23:56;13.88;;;7.88;;
45039;SDS011;30778;53.574;7.770;2022-11-13T16:26:43;14.70;;;8.35;;
45039;SDS011;30778;53.574;7.770;2022-11-13T16:29:31;16.27;;;8.23;;
45039;SDS011;30778;53.574;7.770;2022-11-13T16:32:15;19.77;;;9.93;;
45039;SDS011;30778;53.574;7.770;2022-11-13T16:35:00;14.20;;;9.40;;
45039;SDS011;30778;53.574;7.770;2022-11-13T16:37:43;26.95;;;18.10;;
45039;SDS011;30778;53.574;7.770;2022-11-13T16:40:28;26.38;;;16.45;;
45039;SDS011;30778;53.574;7.770;2022-11-13T16:43:13;37.60;;;21.08;;
45039;SDS011;30778;53.574;7.770;2022-11-13T16:45:58;50.22;;;26.83;;
45039;SDS011;30778;53.574;7.770;2022-11-13T16:48:43;26.67;;;13.45;;
45039;SDS011;30778;53.574;7.770;2022-11-13T16:51:28;24.20;;;12.75;;
45039;SDS011;30778;53.574;7.770;2022-11-13T16:54:12;46.10;;;22.35;;
45039;SDS011;30778;53.574;7.770;2022-11-13T16:56:56;34.47;;;19.90;;
45039;SDS011;30778;53.574;7.770;2022-11-13T16:59:40;32.67;;;21.60;;
45039;SDS011;30778;53.574;7.770;2022-11-13T17:02:24;23.90;;;14.70;;
45039;SDS011;30778;53.574;7.770;2022-11-13T17:05:12;42.60;;;24.23;;
45039;SDS011;30778;53.574;7.770;2022-11-13T17:07:57;30.50;;;15.20;;
45039;SDS011;30778;53.574;7.770;2022-11-13T17:10:42;26.83;;;13.27;;
45039;SDS011;30778;53.574;7.770;2022-11-13T17:13:26;26.98;;;14.20;;
45039;SDS011;30778;53.574;7.770;2022-11-13T17:16:11;27.13;;;13.77;;
45039;SDS011;30778;53.574;7.770;2022-11-13T17:18:56;20.88;;;10.15;;
45039;SDS011;30778;53.574;7.770;2022-11-13T17:21:41;25.25;;;13.10;;
45039;SDS011;30778;53.574;7.770;2022-11-13T17:24:25;34.85;;;15.95;;
45039;SDS011;30778;53.574;7.770;2022-11-13T17:27:09;31.98;;;12.20;;
45039;SDS011;30778;53.574;7.770;2022-11-13T17:29:53;27.02;;;13.70;;
45039;SDS011;30778;53.574;7.770;2022-11-13T17:32:37;69.70;;;30.23;;
45039;SDS011;30778;53.574;7.770;2022-11-13T17:35:22;20.67;;;12.45;;
45039;SDS011;30778;53.574;7.770;2022-11-13T17:38:06;24.80;;;11.20;;
45039;SDS011;30778;53.574;7.770;2022-11-13T17:40:50;24.83;;;11.50;;
45039;SDS011;30778;53.574;7.770;2022-11-13T17:43:36;20.60;;;10.50;;
45039;SDS011;30778;53.574;7.770;2022-11-13T17:46:21;21.75;;;10.30;;
45039;SDS011;30778;53.574;7.770;2022-11-13T17:49:05;25.20;;;10.93;;
45039;SDS011;30778;53.574;7.770;2022-11-13T17:51:49;21.70;;;10.73;;
45039;SDS011;30778;53.574;7.770;2022-11-13T17:54:33;22.88;;;11.25;;
45039;SDS011;30778;53.574;7.770;2022-11-13T17:57:17;20.85;;;9.98;;
45039;SDS011;30778;53.574;7.770;2022-11-13T18:00:01;19.75;;;10.73;;
45039;SDS011;30778;53.574;7.770;2022-11-13T18:02:45;20.60;;;10.35;;
45039;SDS011;30778;53.574;7.770;2022-11-13T18:05:29;36.78;;;15.68;;
45039;SDS011;30778;53.574;7.770;2022-11-13T18:08:13;31.48;;;15.27;;
45039;SDS011;30778;53.574;7.770;2022-11-13T18:10:57;22.27;;;12.27;;
45039;SDS011;30778;53.574;7.770;2022-11-13T18:13:42;21.98;;;12.13;;